»·PEaware :: EAW561 KSNA-KLAS

EAW561 :: KSNA-KLAS

FLIGHT INFORMATION

Flight Status: Arrived
Operator: Unknown
More flights by this operator :: More flights under this callsign
Pilot: Ben F. (2808)
Aircraft: BOEING 737-200
(B732)
More flights by this aircraft type
Origin: KSNA John Wayne-Orange Co
United States
Destination: KLAS McCarran Intl
United States
More flights between these airports :: More routes between these airports
Route: +MUSEL8 DAG CLARR3
File this flight plan on PilotEdge
Remarks: EAW call sign= Eagle Airways
Altitude:
(Current/Filed)
27,000ft
Speed:
(Current/Filed)
438kts
Departed: 20-Mar-18 09:09 AM
Arrived: 20-Mar-18 09:55 AM
Distance/Time
Traveled:
197nm/0:46
Distance/Time
To Go:
Arrived

Flight Plot

Page will automatically refresh every two minutes.

Flight plan parsing failed; only flown route is shown


Map Options




Map Legend


Flown Route
Filed Route
Departure Airport
Arrival Airport
Navaid (VOR, NDB)
Fix

Horizontal Profiles

Position Reports

Time Latitude Longitude Heading Altitude Ground
Speed
20-Mar-18 08:51 33.676732 -117.863965 117 65ft 0kts
20-Mar-18 08:52 33.676732 -117.863965 117 65ft 0kts
20-Mar-18 08:53 33.676732 -117.863965 117 65ft 0kts
20-Mar-18 08:54 33.676732 -117.863965 117 65ft 0kts
20-Mar-18 08:55 33.676732 -117.863965 117 65ft 0kts
20-Mar-18 08:56 33.676732 -117.863965 117 65ft 0kts
20-Mar-18 08:57 33.676732 -117.863965 117 65ft 0kts
20-Mar-18 08:58 33.676732 -117.863965 117 65ft 0kts
20-Mar-18 08:59 33.676732 -117.863965 117 65ft 0kts
20-Mar-18 09:00 33.676732 -117.863965 117 65ft 0kts
20-Mar-18 09:01 33.676784 -117.864084 117 65ft 2kts
20-Mar-18 09:02 33.676966 -117.864573 77 65ft 2kts
20-Mar-18 09:03 33.676871 -117.864713 28 65ft 0kts
20-Mar-18 09:04 33.676871 -117.864713 28 65ft 0kts
20-Mar-18 09:05 33.678130 -117.863891 27 65ft 8kts
20-Mar-18 09:06 33.680981 -117.863819 297 65ft 13kts
20-Mar-18 09:07 33.681186 -117.864273 298 65ft 1kts
20-Mar-18 09:08 33.679045 -117.866707 207 65ft 72kts
20-Mar-18 09:09 33.640236 -117.887752 189 1872ft 186kts
20-Mar-18 09:10 33.583455 -117.898459 188 4623ft 233kts
20-Mar-18 09:11 33.511274 -117.911039 188 6977ft 276kts
20-Mar-18 09:12 33.433619 -117.923727 188 8809ft 286kts
20-Mar-18 09:13 33.380095 -117.976875 270 11461ft 294kts
20-Mar-18 09:14 33.435351 -118.040127 351 13096ft 344kts
20-Mar-18 09:15 33.530112 -118.044260 353 15614ft 348kts
20-Mar-18 09:16 33.625544 -118.048443 353 17577ft 357kts
20-Mar-18 09:17 33.722307 -118.052673 352 19277ft 367kts
20-Mar-18 09:18 33.815767 -118.022560 29 20698ft 398kts
20-Mar-18 09:19 33.901981 -117.947606 31 21941ft 409kts
20-Mar-18 09:20 33.992454 -117.865610 31 23116ft 418kts
20-Mar-18 09:21 34.082936 -117.779047 41 24164ft 432kts
20-Mar-18 09:22 34.162018 -117.675617 42 25067ft 441kts
20-Mar-18 09:23 34.244144 -117.565866 42 25899ft 449kts
20-Mar-18 09:24 34.326876 -117.453689 43 26696ft 455kts
20-Mar-18 09:25 34.409662 -117.340931 43 27125ft 468kts
20-Mar-18 09:26 34.491620 -117.228930 43 27113ft 485kts
20-Mar-18 09:27 34.580121 -117.107535 43 27117ft 485kts
20-Mar-18 09:28 34.667755 -116.986963 43 27119ft 485kts
20-Mar-18 09:29 34.755542 -116.865753 43 27120ft 485kts
20-Mar-18 09:30 34.843217 -116.744238 43 27122ft 485kts
20-Mar-18 09:31 34.931244 -116.621766 43 27122ft 485kts
20-Mar-18 09:32 35.021519 -116.504614 39 25347ft 475kts
20-Mar-18 09:33 35.108103 -116.396245 39 24142ft 447kts
20-Mar-18 09:34 35.187566 -116.296941 40 24130ft 441kts
20-Mar-18 09:35 35.269081 -116.194761 40 22551ft 425kts
20-Mar-18 09:36 35.348724 -116.094584 41 20573ft 406kts
20-Mar-18 09:37 35.424596 -115.998894 42 17881ft 387kts
20-Mar-18 09:38 35.497012 -115.907293 43 15311ft 367kts
20-Mar-18 09:39 35.565448 -115.820490 43 12998ft 347kts
20-Mar-18 09:40 35.628248 -115.740562 43 12981ft 323kts
20-Mar-18 09:41 35.685469 -115.657164 51 12369ft 323kts
20-Mar-18 09:42 35.738272 -115.570158 51 10654ft 305kts
20-Mar-18 09:43 35.785305 -115.490936 51 9183ft 280kts
20-Mar-18 09:44 35.829036 -115.416640 51 8662ft 254kts
20-Mar-18 09:45 35.871024 -115.345150 51 8979ft 267kts
20-Mar-18 09:46 35.904739 -115.268547 71 8574ft 263kts
20-Mar-18 09:47 35.923696 -115.189962 71 7554ft 263kts
20-Mar-18 09:48 35.944272 -115.105054 71 6508ft 258kts
20-Mar-18 09:49 35.972612 -115.030479 23 5883ft 230kts
20-Mar-18 09:50 36.034173 -115.021861 2 4346ft 223kts
20-Mar-18 09:51 36.072094 -115.054716 279 3208ft 170kts
20-Mar-18 09:52 36.073541 -115.105685 271 2487ft 131kts
20-Mar-18 09:53 36.073637 -115.145173 271 2189ft 53kts
20-Mar-18 09:54 36.077102 -115.152417 333 2189ft 7kts
20-Mar-18 09:55 36.078583 -115.153267 335 2189ft 14kts
20-Mar-18 09:56 36.082669 -115.155637 334 2189ft 19kts
20-Mar-18 09:57 36.086255 -115.155582 25 2189ft 8kts
20-Mar-18 09:58 36.085913 -115.154124 153 2189ft 0kts
20-Mar-18 09:59 36.085913 -115.154124 153 2189ft 0kts
20-Mar-18 10:00 36.085913 -115.154124 153 2189ft 0kts
20-Mar-18 10:01 36.085913 -115.154124 153 2189ft 0kts

Navigation Log

Ident Type
Flight plan parsing failed, navigation log unavailable